Time;durP1;ratioP1;P1;durP2;ratioP2;P2;SDS_P1;SDS_P2;PMS_P1;PMS_P2;Temp;Humidity;BMP_temperature;BMP_pressure;BME280_temperature;BME280_humidity;BME280_pressure;Samples;Min_cycle;Max_cycle;Signal;HPM_P1;HPM_P2
2023/09/15 00:02:05;;;;;;;5.25;2.30;;;;;;;;;;4923902;29;20028;-81
2023/09/15 00:04:30;;;;;;;5.70;2.30;;;;;;;;;;4919929;29;20028;-78
2023/09/15 00:06:55;;;;;;;3.72;2.03;;;;;;;;;;4915984;29;20039;-80
2023/09/15 00:09:20;;;;;;;4.97;2.10;;;;;;;;;;4907920;29;20040;-80
2023/09/15 00:11:47;;;;;;;6.70;2.40;;;;;;;;;;4917792;29;20036;-80
2023/09/15 00:14:13;;;;;;;4.28;2.20;;;;;;;;;;4922134;29;20040;-80
2023/09/15 00:16:39;;;;;;;4.40;2.10;;;;;;;;;;4919446;29;20040;-80
2023/09/15 00:19:06;;;;;;;5.95;2.67;;;;;;;;;;4904267;29;20051;-81
2023/09/15 00:21:32;;;;;;;6.65;2.10;;;;;;;;;;4914059;29;20071;-81
2023/09/15 00:23:57;;;;;;;4.05;1.80;;;;;;;;;;4917487;29;20036;-80
2023/09/15 00:26:23;;;;;;;5.07;2.63;;;;;;;;;;4925312;29;20064;-81
2023/09/15 00:28:49;;;;;;;5.07;1.92;;;;;;;;;;4924363;29;20463;-80
2023/09/15 00:31:15;;;;;;;3.78;1.90;;;;;;;;;;4920071;29;20028;-80
2023/09/15 00:33:40;;;;;;;4.65;2.00;;;;;;;;;;4920369;29;20087;-81
2023/09/15 00:36:06;;;;;;;4.82;1.83;;;;;;;;;;4913007;29;20043;-80
2023/09/15 00:38:32;;;;;;;5.22;2.30;;;;;;;;;;4901375;29;20063;-80
2023/09/15 00:40:57;;;;;;;5.60;2.38;;;;;;;;;;4925418;29;20450;-80
2023/09/15 00:43:22;;;;;;;7.00;2.38;;;;;;;;;;4903971;29;20501;-80
2023/09/15 00:45:48;;;;;;;4.00;1.85;;;;;;;;;;4923270;29;20039;-80
2023/09/15 00:48:14;;;;;;;4.82;2.20;;;;;;;;;;4913091;29;20028;-80
2023/09/15 00:50:40;;;;;;;5.10;2.22;;;;;;;;;;4914944;29;20076;-80
2023/09/15 00:53:09;;;;;;;5.32;2.15;;;;;;;;;;4922107;29;20024;-80
2023/09/15 00:55:34;;;;;;;3.97;1.92;;;;;;;;;;4923372;29;20092;-80
2023/09/15 00:58:03;;;;;;;4.88;2.10;;;;;;;;;;4921847;29;20028;-80
2023/09/15 01:00:28;;;;;;;5.32;2.13;;;;;;;;;;4915744;29;20040;-80
2023/09/15 01:02:53;;;;;;;4.80;1.88;;;;;;;;;;4915672;29;20420;-80
2023/09/15 01:05:20;;;;;;;3.45;1.80;;;;;;;;;;4908453;29;20064;-81
2023/09/15 01:07:46;;;;;;;6.40;2.25;;;;;;;;;;4919645;29;20035;-80
2023/09/15 01:10:12;;;;;;;5.05;1.90;;;;;;;;;;4916692;29;20032;-80
2023/09/15 01:12:38;;;;;;;6.45;2.38;;;;;;;;;;4918758;29;20057;-81
2023/09/15 01:15:03;;;;;;;5.57;2.60;;;;;;;;;;4916021;29;20036;-81
2023/09/15 01:17:32;;;;;;;6.20;3.00;;;;;;;;;;4912429;29;20024;-81
2023/09/15 01:20:00;;;;;;;4.57;2.72;;;;;;;;;;4914285;29;20040;-80
2023/09/15 01:22:41;;;;;;;7.07;2.60;;;;;;;;;;4922977;29;20088;-81
2023/09/15 01:25:15;;;;;;;5.43;2.35;;;;;;;;;;4922341;29;20115;-81
2023/09/15 01:27:51;;;;;;;5.78;2.70;;;;;;;;;;4906189;29;20035;-81
2023/09/15 01:30:17;;;;;;;4.10;2.00;;;;;;;;;;4910583;29;20032;-81
2023/09/15 01:32:43;;;;;;;4.88;2.38;;;;;;;;;;4912374;29;20033;-81
2023/09/15 01:35:08;;;;;;;5.07;2.15;;;;;;;;;;4920319;29;20133;-81
2023/09/15 01:37:33;;;;;;;3.90;2.22;;;;;;;;;;4922005;29;20067;-81
2023/09/15 01:39:59;;;;;;;5.05;2.90;;;;;;;;;;4917850;29;20505;-82
2023/09/15 01:42:24;;;;;;;4.35;2.70;;;;;;;;;;4906574;29;20096;-81
2023/09/15 01:44:50;;;;;;;5.18;2.60;;;;;;;;;;4912576;29;20075;-81
2023/09/15 01:47:18;;;;;;;7.80;2.70;;;;;;;;;;4908840;29;20509;-81
2023/09/15 01:49:43;;;;;;;4.45;2.15;;;;;;;;;;4906597;29;20052;-81
2023/09/15 01:52:09;;;;;;;4.10;2.45;;;;;;;;;;4909628;29;20098;-81
2023/09/15 01:54:35;;;;;;;5.72;3.28;;;;;;;;;;4919113;29;20032;-80
2023/09/15 01:57:00;;;;;;;6.20;3.05;;;;;;;;;;4909363;29;20029;-81
2023/09/15 01:59:26;;;;;;;3.90;2.03;;;;;;;;;;4909788;29;20037;-81
2023/09/15 02:01:51;;;;;;;3.13;1.58;;;;;;;;;;4897472;29;20028;-82
2023/09/15 02:04:16;;;;;;;7.93;2.95;;;;;;;;;;4917752;29;20029;-81
2023/09/15 02:06:41;;;;;;;4.13;2.42;;;;;;;;;;4920917;29;20492;-81
2023/09/15 02:09:07;;;;;;;3.90;1.85;;;;;;;;;;4917986;29;20114;-80
2023/09/15 02:11:33;;;;;;;4.30;1.98;;;;;;;;;;4916816;29;20029;-81
2023/09/15 02:13:58;;;;;;;4.00;2.35;;;;;;;;;;4910808;29;20020;-81
2023/09/15 02:16:24;;;;;;;4.43;2.60;;;;;;;;;;4916880;29;20036;-82
2023/09/15 02:18:49;;;;;;;4.25;2.13;;;;;;;;;;4924211;29;20034;-81
2023/09/15 02:21:14;;;;;;;4.38;2.03;;;;;;;;;;4900915;29;20047;-82
2023/09/15 02:23:40;;;;;;;4.05;2.25;;;;;;;;;;4918332;29;20033;-81
2023/09/15 02:26:05;;;;;;;3.63;1.90;;;;;;;;;;4896721;29;20445;-81
2023/09/15 02:28:31;;;;;;;3.83;1.98;;;;;;;;;;4909093;29;20037;-81
2023/09/15 02:30:56;;;;;;;4.25;2.03;;;;;;;;;;4919440;29;20023;-82
2023/09/15 02:33:22;;;;;;;5.78;2.25;;;;;;;;;;4920538;29;20382;-81
2023/09/15 02:35:48;;;;;;;4.90;2.45;;;;;;;;;;4902491;29;20424;-81
2023/09/15 02:38:14;;;;;;;3.90;2.40;;;;;;;;;;4917738;29;20127;-81
2023/09/15 02:40:39;;;;;;;5.30;2.83;;;;;;;;;;4911283;29;20028;-81
2023/09/15 02:43:04;;;;;;;4.57;2.40;;;;;;;;;;4909126;29;20489;-81
2023/09/15 02:45:33;;;;;;;4.38;2.30;;;;;;;;;;4921008;29;20096;-81
2023/09/15 02:47:58;;;;;;;3.85;1.92;;;;;;;;;;4920694;29;20452;-81
2023/09/15 02:50:24;;;;;;;3.83;1.67;;;;;;;;;;4915827;29;20040;-81
2023/09/15 02:52:49;;;;;;;6.15;2.67;;;;;;;;;;4915004;29;20052;-81
2023/09/15 02:55:14;;;;;;;3.97;2.03;;;;;;;;;;4913272;29;20028;-81
2023/09/15 02:57:39;;;;;;;4.32;2.63;;;;;;;;;;4919110;29;20043;-81
2023/09/15 03:00:07;;;;;;;4.32;1.80;;;;;;;;;;4921996;29;20188;-81
2023/09/15 03:02:35;;;;;;;4.30;2.20;;;;;;;;;;4919905;29;20039;-81
2023/09/15 03:05:00;;;;;;;5.85;2.47;;;;;;;;;;4919664;29;20036;-81
2023/09/15 03:07:27;;;;;;;7.95;1.88;;;;;;;;;;4914809;29;20044;-81
2023/09/15 03:09:53;;;;;;;4.10;2.10;;;;;;;;;;4914097;29;20489;-81
2023/09/15 03:12:18;;;;;;;5.68;2.42;;;;;;;;;;4924156;29;20021;-82
2023/09/15 03:14:44;;;;;;;3.55;1.95;;;;;;;;;;4918769;29;20396;-81
2023/09/15 03:17:10;;;;;;;7.75;2.22;;;;;;;;;;4917614;29;20036;-81
2023/09/15 03:19:35;;;;;;;3.85;1.85;;;;;;;;;;4913242;29;20076;-81
2023/09/15 03:22:01;;;;;;;4.95;2.42;;;;;;;;;;4915122;29;20036;-81
2023/09/15 03:24:27;;;;;;;6.25;3.10;;;;;;;;;;4906468;29;20111;-81
2023/09/15 03:26:53;;;;;;;5.00;2.42;;;;;;;;;;4912475;29;20048;-81
2023/09/15 03:29:18;;;;;;;6.25;2.38;;;;;;;;;;4907855;29;20063;-81
2023/09/15 03:31:44;;;;;;;5.25;2.42;;;;;;;;;;4922963;29;20126;-82
2023/09/15 03:34:10;;;;;;;4.60;2.22;;;;;;;;;;4916543;29;20055;-81
2023/09/15 03:36:36;;;;;;;4.15;1.63;;;;;;;;;;4906080;29;20037;-81
2023/09/15 03:39:03;;;;;;;5.55;2.75;;;;;;;;;;4909719;29;20035;-81
2023/09/15 03:41:29;;;;;;;5.70;2.03;;;;;;;;;;4924505;29;20036;-81
2023/09/15 03:43:55;;;;;;;3.55;1.80;;;;;;;;;;4923765;29;20034;-81
2023/09/15 03:46:20;;;;;;;4.13;2.15;;;;;;;;;;4916120;29;20037;-81
2023/09/15 03:48:46;;;;;;;9.63;4.40;;;;;;;;;;4919921;29;20087;-81
2023/09/15 03:51:11;;;;;;;5.63;2.67;;;;;;;;;;4917101;29;20099;-80
2023/09/15 03:53:37;;;;;;;4.75;2.55;;;;;;;;;;4920023;29;20062;-79
2023/09/15 03:56:03;;;;;;;6.43;2.75;;;;;;;;;;4924519;29;20024;-79
2023/09/15 03:58:29;;;;;;;7.15;2.95;;;;;;;;;;4904726;29;20036;-80
2023/09/15 04:00:55;;;;;;;4.60;2.30;;;;;;;;;;4918793;29;20172;-80
2023/09/15 04:03:21;;;;;;;4.63;2.25;;;;;;;;;;4914660;29;20055;-80
2023/09/15 04:05:46;;;;;;;4.50;2.42;;;;;;;;;;4910436;29;20501;-80
2023/09/15 04:08:11;;;;;;;4.97;2.72;;;;;;;;;;4918512;29;20039;-80
2023/09/15 04:10:38;;;;;;;5.88;2.63;;;;;;;;;;4921917;29;20033;-81
2023/09/15 04:13:03;;;;;;;4.45;2.28;;;;;;;;;;4915355;29;20266;-80
2023/09/15 04:15:29;;;;;;;4.57;2.47;;;;;;;;;;4909059;29;20036;-79
2023/09/15 04:17:55;;;;;;;7.00;2.60;;;;;;;;;;4916633;23;20489;-80
2023/09/15 04:20:21;;;;;;;4.45;1.95;;;;;;;;;;4909994;29;20032;-79
2023/09/15 04:22:46;;;;;;;5.03;2.42;;;;;;;;;;4914819;29;20021;-80
2023/09/15 04:25:11;;;;;;;4.90;2.20;;;;;;;;;;4915377;29;20485;-80
2023/09/15 04:27:38;;;;;;;4.22;2.33;;;;;;;;;;4911705;29;20400;-77
2023/09/15 04:30:04;;;;;;;6.05;3.22;;;;;;;;;;4914132;29;20024;-78
2023/09/15 04:32:35;;;;;;;5.70;2.45;;;;;;;;;;4896913;29;20032;-79
2023/09/15 04:35:01;;;;;;;3.80;2.13;;;;;;;;;;4920139;29;20067;-76
2023/09/15 04:37:26;;;;;;;4.53;1.92;;;;;;;;;;4907896;29;20032;-79
2023/09/15 04:39:51;;;;;;;4.07;2.00;;;;;;;;;;4915154;29;20020;-78
2023/09/15 04:42:17;;;;;;;4.43;1.70;;;;;;;;;;4911425;29;20480;-78
2023/09/15 04:44:43;;;;;;;5.18;1.75;;;;;;;;;;4925160;29;20076;-78
2023/09/15 04:47:09;;;;;;;4.05;1.75;;;;;;;;;;4911478;29;20487;-78
2023/09/15 04:49:35;;;;;;;3.40;1.60;;;;;;;;;;4913957;29;20506;-78
2023/09/15 04:52:01;;;;;;;4.55;1.80;;;;;;;;;;4916979;29;20119;-78
2023/09/15 04:54:28;;;;;;;4.32;2.00;;;;;;;;;;4912446;29;20056;-78
2023/09/15 04:56:54;;;;;;;6.07;2.33;;;;;;;;;;4911992;29;20616;-79
2023/09/15 04:59:19;;;;;;;5.05;2.83;;;;;;;;;;4909449;29;20040;-78
2023/09/15 05:01:45;;;;;;;4.82;1.80;;;;;;;;;;4910676;29;20055;-77
2023/09/15 05:04:11;;;;;;;3.53;1.80;;;;;;;;;;4907405;29;20043;-79
2023/09/15 05:06:37;;;;;;;8.80;6.45;;;;;;;;;;4912390;29;20517;-77
2023/09/15 05:09:08;;;;;;;10.52;6.38;;;;;;;;;;4913116;29;20051;-77
2023/09/15 05:11:35;;;;;;;3.90;2.30;;;;;;;;;;4903645;29;20029;-77
2023/09/15 05:14:00;;;;;;;4.22;1.95;;;;;;;;;;4908523;29;20035;-77
2023/09/15 05:16:27;;;;;;;5.10;1.88;;;;;;;;;;4905243;29;20036;-78
2023/09/15 05:18:52;;;;;;;6.05;1.88;;;;;;;;;;4914711;29;20039;-78
2023/09/15 05:21:17;;;;;;;7.07;1.92;;;;;;;;;;4913313;29;20091;-77
2023/09/15 05:23:42;;;;;;;4.32;2.05;;;;;;;;;;4909660;29;20040;-77
2023/09/15 05:26:08;;;;;;;5.15;2.45;;;;;;;;;;4909061;29;20032;-78
2023/09/15 05:28:34;;;;;;;6.63;2.47;;;;;;;;;;4907014;29;20496;-79
2023/09/15 05:30:59;;;;;;;5.15;2.30;;;;;;;;;;4916182;29;20027;-78
2023/09/15 05:33:28;;;;;;;4.53;2.45;;;;;;;;;;4911081;29;20024;-77
2023/09/15 05:35:54;;;;;;;4.70;2.13;;;;;;;;;;4910285;29;20028;-78
2023/09/15 05:38:19;;;;;;;9.77;2.67;;;;;;;;;;4909259;29;20029;-78
2023/09/15 05:40:45;;;;;;;4.57;2.70;;;;;;;;;;4896690;29;20084;-77
2023/09/15 05:43:11;;;;;;;5.65;2.50;;;;;;;;;;4908931;29;20415;-77
2023/09/15 05:45:36;;;;;;;4.63;2.70;;;;;;;;;;4911665;29;20040;-78
2023/09/15 05:48:02;;;;;;;7.18;2.92;;;;;;;;;;4907764;29;20085;-78
2023/09/15 05:50:27;;;;;;;4.70;2.42;;;;;;;;;;4910627;29;20064;-77
2023/09/15 05:52:52;;;;;;;5.93;2.90;;;;;;;;;;4899612;29;20024;-77
2023/09/15 05:55:18;;;;;;;4.43;2.45;;;;;;;;;;4912315;29;20107;-78
2023/09/15 05:57:43;;;;;;;5.95;2.60;;;;;;;;;;4905633;29;20047;-77
2023/09/15 06:00:08;;;;;;;5.20;2.80;;;;;;;;;;4904123;29;20029;-78
2023/09/15 06:02:39;;;;;;;5.40;2.80;;;;;;;;;;4905167;29;20271;-78
2023/09/15 06:05:05;;;;;;;6.13;3.10;;;;;;;;;;4907968;29;20032;-79
2023/09/15 06:07:30;;;;;;;4.95;2.85;;;;;;;;;;4906350;29;20033;-77
2023/09/15 06:09:55;;;;;;;5.60;2.90;;;;;;;;;;4909121;29;20136;-77
2023/09/15 06:12:20;;;;;;;5.88;3.10;;;;;;;;;;4907838;29;20409;-77
2023/09/15 06:14:45;;;;;;;7.60;3.33;;;;;;;;;;4911271;29;20075;-77
2023/09/15 06:17:12;;;;;;;6.20;3.50;;;;;;;;;;4910487;29;20140;-79
2023/09/15 06:19:37;;;;;;;7.55;3.60;;;;;;;;;;4906336;29;20036;-76
2023/09/15 06:22:02;;;;;;;5.80;3.70;;;;;;;;;;4914912;29;20059;-77
2023/09/15 06:24:28;;;;;;;5.60;2.80;;;;;;;;;;4910108;29;20067;-77
2023/09/15 06:26:54;;;;;;;8.95;3.45;;;;;;;;;;4911854;29;20115;-78
2023/09/15 06:29:19;;;;;;;7.38;2.83;;;;;;;;;;4913943;29;20489;-78
2023/09/15 06:31:45;;;;;;;6.47;3.40;;;;;;;;;;4912269;29;20031;-79
2023/09/15 06:34:10;;;;;;;5.30;2.73;;;;;;;;;;4912702;29;20036;-79
2023/09/15 06:36:36;;;;;;;5.60;2.97;;;;;;;;;;4911962;29;20752;-78
2023/09/15 06:39:02;;;;;;;7.07;3.55;;;;;;;;;;4914594;29;20028;-78
2023/09/15 06:41:27;;;;;;;5.95;3.22;;;;;;;;;;4915652;29;20492;-77
2023/09/15 06:43:52;;;;;;;8.68;3.80;;;;;;;;;;4919210;29;20040;-78
2023/09/15 06:46:21;;;;;;;8.13;3.58;;;;;;;;;;4916416;29;20051;-79
2023/09/15 06:48:46;;;;;;;5.72;3.15;;;;;;;;;;4913541;29;20032;-79
2023/09/15 06:51:12;;;;;;;5.35;2.78;;;;;;;;;;4912168;29;20508;-77
2023/09/15 06:53:37;;;;;;;5.10;2.80;;;;;;;;;;4910848;29;20112;-78
2023/09/15 06:56:02;;;;;;;5.45;3.13;;;;;;;;;;4920045;29;20744;-79
2023/09/15 06:58:27;;;;;;;6.18;3.13;;;;;;;;;;4917393;29;20139;-77
2023/09/15 07:00:54;;;;;;;6.60;3.40;;;;;;;;;;4919399;29;20633;-79
2023/09/15 07:03:19;;;;;;;7.13;3.05;;;;;;;;;;4911871;29;20091;-78
2023/09/15 07:05:44;;;;;;;5.57;2.55;;;;;;;;;;4914403;29;20032;-78
2023/09/15 07:08:09;;;;;;;5.57;3.10;;;;;;;;;;4911854;29;20032;-77
2023/09/15 07:10:35;;;;;;;5.80;3.83;;;;;;;;;;4911041;29;20024;-77
2023/09/15 07:13:00;;;;;;;5.70;3.47;;;;;;;;;;4910532;29;20031;-77
2023/09/15 07:15:27;;;;;;;4.87;2.83;;;;;;;;;;4913324;29;20780;-77
2023/09/15 07:17:52;;;;;;;6.30;3.53;;;;;;;;;;4913103;29;20276;-78
2023/09/15 07:20:17;;;;;;;6.95;4.13;;;;;;;;;;4924174;29;20507;-78
2023/09/15 07:22:43;;;;;;;6.82;3.90;;;;;;;;;;4913412;29;20043;-78
2023/09/15 07:25:08;;;;;;;5.72;2.90;;;;;;;;;;4909473;29;20538;-77
2023/09/15 07:27:33;;;;;;;5.07;2.58;;;;;;;;;;4911939;29;20525;-78
2023/09/15 07:29:58;;;;;;;4.67;2.60;;;;;;;;;;4909656;29;20032;-77
2023/09/15 07:32:23;;;;;;;4.77;2.80;;;;;;;;;;4912344;29;20839;-77
2023/09/15 07:34:49;;;;;;;5.10;2.67;;;;;;;;;;4911319;29;20279;-77
2023/09/15 07:37:15;;;;;;;6.28;2.85;;;;;;;;;;4913803;29;20456;-76
2023/09/15 07:39:40;;;;;;;5.90;2.85;;;;;;;;;;4915547;29;20033;-78
2023/09/15 07:42:08;;;;;;;5.37;3.10;;;;;;;;;;4915682;29;20039;-77
2023/09/15 07:44:33;;;;;;;6.45;2.40;;;;;;;;;;4909660;29;20289;-77
2023/09/15 07:46:58;;;;;;;6.38;2.47;;;;;;;;;;4917295;29;20103;-77
2023/09/15 07:49:24;;;;;;;4.77;2.03;;;;;;;;;;4915159;29;20096;-78
2023/09/15 07:51:50;;;;;;;6.30;3.20;;;;;;;;;;4910540;29;20765;-78
2023/09/15 07:54:15;;;;;;;5.47;2.80;;;;;;;;;;4914746;29;20040;-78
2023/09/15 07:56:40;;;;;;;4.35;2.60;;;;;;;;;;4912563;29;20040;-77
2023/09/15 07:59:07;;;;;;;4.90;2.50;;;;;;;;;;4917153;29;20027;-77
2023/09/15 08:01:32;;;;;;;5.00;2.85;;;;;;;;;;4906712;29;20285;-78
2023/09/15 08:03:57;;;;;;;5.57;3.10;;;;;;;;;;4910578;29;20040;-78
2023/09/15 08:06:22;;;;;;;6.43;3.63;;;;;;;;;;4916305;29;20713;-78
2023/09/15 08:08:48;;;;;;;6.57;3.30;;;;;;;;;;4911848;29;20699;-78
2023/09/15 08:11:13;;;;;;;9.85;3.60;;;;;;;;;;4913879;29;20167;-78
2023/09/15 08:13:38;;;;;;;5.90;3.20;;;;;;;;;;4910671;29;20029;-78
2023/09/15 08:16:04;;;;;;;9.05;3.17;;;;;;;;;;4913570;29;20264;-78
2023/09/15 08:18:29;;;;;;;15.95;3.15;;;;;;;;;;4912640;29;20413;-77
2023/09/15 08:20:54;;;;;;;7.25;2.58;;;;;;;;;;4904255;29;20114;-77
2023/09/15 08:23:19;;;;;;;6.53;3.00;;;;;;;;;;4908210;29;20092;-77
2023/09/15 08:25:44;;;;;;;6.57;2.67;;;;;;;;;;4911352;29;20040;-77
2023/09/15 08:28:10;;;;;;;6.45;2.75;;;;;;;;;;4910806;29;20032;-78
2023/09/15 08:30:37;;;;;;;7.97;2.90;;;;;;;;;;4911603;29;20024;-77
2023/09/15 08:33:03;;;;;;;6.72;2.50;;;;;;;;;;4915901;29;20275;-76
2023/09/15 08:35:29;;;;;;;6.78;2.58;;;;;;;;;;4913714;29;20036;-78
2023/09/15 08:37:54;;;;;;;5.93;2.90;;;;;;;;;;4913285;29;20103;-78
2023/09/15 08:40:19;;;;;;;4.50;2.22;;;;;;;;;;4912116;29;20511;-77
2023/09/15 08:42:44;;;;;;;6.90;3.22;;;;;;;;;;4911938;29;20040;-78
2023/09/15 08:45:10;;;;;;;6.93;2.42;;;;;;;;;;4913447;29;20031;-80
2023/09/15 08:47:37;;;;;;;4.65;2.30;;;;;;;;;;4914389;29;20020;-79
2023/09/15 08:50:03;;;;;;;9.57;2.83;;;;;;;;;;4905032;29;20033;-77
2023/09/15 08:52:29;;;;;;;5.18;2.60;;;;;;;;;;4909892;29;20511;-77
2023/09/15 08:54:54;;;;;;;4.95;2.88;;;;;;;;;;4911169;29;20028;-77
2023/09/15 08:57:20;;;;;;;5.38;3.35;;;;;;;;;;4907532;29;20039;-77
2023/09/15 08:59:46;;;;;;;4.57;2.38;;;;;;;;;;4920805;29;20504;-76
2023/09/15 09:02:12;;;;;;;6.13;2.33;;;;;;;;;;4913961;29;20060;-77
2023/09/15 09:04:37;;;;;;;4.78;2.50;;;;;;;;;;4905830;29;20032;-76
2023/09/15 09:07:03;;;;;;;5.03;2.38;;;;;;;;;;4907701;29;20077;-76
2023/09/15 09:09:29;;;;;;;5.90;3.20;;;;;;;;;;4907258;29;20107;-76
2023/09/15 09:11:54;;;;;;;4.97;2.78;;;;;;;;;;4906967;29;20497;-77
2023/09/15 09:14:19;;;;;;;4.32;2.65;;;;;;;;;;4908717;29;20111;-76
2023/09/15 09:16:44;;;;;;;6.67;3.27;;;;;;;;;;4908529;29;20032;-77
2023/09/15 09:19:10;;;;;;;3.30;1.90;;;;;;;;;;4915041;29;20279;-76
2023/09/15 09:21:36;;;;;;;6.38;2.55;;;;;;;;;;4909097;29;20312;-77
2023/09/15 09:24:01;;;;;;;6.22;2.75;;;;;;;;;;4913570;29;20103;-77
2023/09/15 09:26:27;;;;;;;4.95;2.55;;;;;;;;;;4902890;29;20032;-77
2023/09/15 09:28:54;;;;;;;5.75;2.25;;;;;;;;;;4909661;29;20092;-77
2023/09/15 09:31:21;;;;;;;5.85;2.88;;;;;;;;;;4905580;29;20047;-77
2023/09/15 09:33:46;;;;;;;8.70;2.95;;;;;;;;;;4908921;29;20036;-76
2023/09/15 09:36:12;;;;;;;6.00;2.53;;;;;;;;;;4906989;29;20059;-76
2023/09/15 09:38:37;;;;;;;4.40;2.28;;;;;;;;;;4904966;29;20037;-77
2023/09/15 09:41:03;;;;;;;4.40;2.50;;;;;;;;;;4912221;29;20618;-76
2023/09/15 09:43:28;;;;;;;5.18;2.30;;;;;;;;;;4904928;29;20288;-76
2023/09/15 09:45:55;;;;;;;4.73;2.53;;;;;;;;;;4910982;29;20032;-77
2023/09/15 09:48:23;;;;;;;5.00;3.15;;;;;;;;;;4909378;29;20315;-76
2023/09/15 09:50:49;;;;;;;5.30;2.60;;;;;;;;;;4908611;29;20044;-76
2023/09/15 09:53:14;;;;;;;4.32;2.58;;;;;;;;;;4907236;29;20036;-76
2023/09/15 09:55:44;;;;;;;4.90;2.00;;;;;;;;;;4908333;29;20039;-76
2023/09/15 09:58:12;;;;;;;4.68;2.60;;;;;;;;;;4897017;29;20036;-77
2023/09/15 10:00:38;;;;;;;6.65;2.47;;;;;;;;;;4910845;29;20490;-76
2023/09/15 10:03:04;;;;;;;4.32;2.55;;;;;;;;;;4911597;29;20400;-76
2023/09/15 10:05:31;;;;;;;4.63;1.70;;;;;;;;;;4907940;29;20123;-77
2023/09/15 10:07:56;;;;;;;5.35;2.03;;;;;;;;;;4903384;29;20454;-76
2023/09/15 10:10:21;;;;;;;4.35;2.03;;;;;;;;;;4910825;29;20068;-74
2023/09/15 10:12:47;;;;;;;4.45;2.05;;;;;;;;;;4911102;29;20084;-76
2023/09/15 10:15:12;;;;;;;3.88;1.98;;;;;;;;;;4911716;29;20043;-77
2023/09/15 10:17:38;;;;;;;6.03;2.40;;;;;;;;;;4909930;29;20055;-75
2023/09/15 10:20:03;;;;;;;4.97;2.03;;;;;;;;;;4908966;29;20021;-76
2023/09/15 10:22:28;;;;;;;4.78;2.38;;;;;;;;;;4911503;29;20520;-76
2023/09/15 10:24:56;;;;;;;5.00;2.30;;;;;;;;;;4924379;29;20032;-77
2023/09/15 10:27:21;;;;;;;4.60;2.83;;;;;;;;;;4924208;29;20353;-76
2023/09/15 10:29:46;;;;;;;5.17;3.07;;;;;;;;;;4914858;29;20047;-75
2023/09/15 10:32:18;;;;;;;4.03;1.70;;;;;;;;;;4910816;29;20276;-76
2023/09/15 10:34:45;;;;;;;4.60;1.60;;;;;;;;;;4889868;29;20040;-77
2023/09/15 10:37:10;;;;;;;4.13;1.40;;;;;;;;;;4911529;29;20401;-77
2023/09/15 10:39:36;;;;;;;2.53;1.58;;;;;;;;;;4912259;29;20044;-75
2023/09/15 10:42:08;;;;;;;3.10;1.58;;;;;;;;;;4913099;29;20055;-76
2023/09/15 10:44:33;;;;;;;2.97;1.50;;;;;;;;;;4908430;29;20060;-77
2023/09/15 10:46:59;;;;;;;3.50;1.70;;;;;;;;;;4906669;29;20136;-75
2023/09/15 10:49:25;;;;;;;4.85;1.75;;;;;;;;;;4924254;23;20080;-80
2023/09/15 10:52:00;;;;;;;3.70;1.67;;;;;;;;;;4912939;29;20080;-81
2023/09/15 10:54:29;;;;;;;3.30;2.05;;;;;;;;;;4913148;29;20087;-80
2023/09/15 10:56:55;;;;;;;3.33;2.00;;;;;;;;;;4913440;29;20461;-81
2023/09/15 10:59:21;;;;;;;3.60;1.80;;;;;;;;;;4913505;29;20048;-81
2023/09/15 11:01:46;;;;;;;5.65;2.05;;;;;;;;;;4909875;29;20044;-81
2023/09/15 11:04:12;;;;;;;3.63;2.17;;;;;;;;;;4904703;29;20046;-81
2023/09/15 11:06:38;;;;;;;3.28;1.85;;;;;;;;;;4913413;29;20375;-81
2023/09/15 11:09:05;;;;;;;5.35;1.95;;;;;;;;;;4913957;29;20078;-82
2023/09/15 11:11:31;;;;;;;7.93;1.95;;;;;;;;;;4912288;29;20044;-81
2023/09/15 11:13:56;;;;;;;4.28;1.70;;;;;;;;;;4910608;29;20028;-82
2023/09/15 11:16:24;;;;;;;3.37;2.00;;;;;;;;;;4911451;29;20040;-81
2023/09/15 11:18:49;;;;;;;3.95;1.60;;;;;;;;;;4912499;29;20284;-82
2023/09/15 11:21:15;;;;;;;4.17;2.00;;;;;;;;;;4915854;29;20111;-81
2023/09/15 11:23:43;;;;;;;4.00;1.88;;;;;;;;;;4917587;29;20268;-81
2023/09/15 11:26:09;;;;;;;4.28;2.22;;;;;;;;;;4912513;29;20044;-82
2023/09/15 11:28:34;;;;;;;5.57;1.90;;;;;;;;;;4913938;29;20127;-82
2023/09/15 11:31:02;;;;;;;3.30;1.83;;;;;;;;;;4915832;29;20039;-83
2023/09/15 11:33:27;;;;;;;3.83;1.90;;;;;;;;;;4911158;29;20028;-81
2023/09/15 11:35:54;;;;;;;3.78;2.00;;;;;;;;;;4916495;29;20609;-82
2023/09/15 11:38:19;;;;;;;3.00;1.67;;;;;;;;;;4916183;29;20040;-81
2023/09/15 11:40:46;;;;;;;6.43;2.40;;;;;;;;;;4915354;29;20067;-81
2023/09/15 11:43:12;;;;;;;4.40;2.40;;;;;;;;;;4914031;29;20042;-79
2023/09/15 11:45:38;;;;;;;4.47;1.95;;;;;;;;;;4912426;29;20041;-78
2023/09/15 11:48:04;;;;;;;4.28;2.30;;;;;;;;;;4920190;29;20091;-80
2023/09/15 11:50:31;;;;;;;4.32;3.10;;;;;;;;;;4915172;29;20060;-78
2023/09/15 11:52:57;;;;;;;5.75;3.03;;;;;;;;;;4909312;29;20107;-80
2023/09/15 11:55:24;;;;;;;5.15;2.70;;;;;;;;;;4911114;29;20461;-79
2023/09/15 11:57:52;;;;;;;3.45;1.70;;;;;;;;;;4912207;29;20386;-80
2023/09/15 12:00:21;;;;;;;3.20;1.50;;;;;;;;;;4913099;29;20028;-79
2023/09/15 12:02:46;;;;;;;3.95;1.92;;;;;;;;;;4909172;29;20102;-80
2023/09/15 12:05:13;;;;;;;4.45;1.95;;;;;;;;;;4897318;29;20059;-78
2023/09/15 12:07:39;;;;;;;4.10;2.38;;;;;;;;;;4912323;29;20036;-79
2023/09/15 12:10:05;;;;;;;4.28;2.13;;;;;;;;;;4914026;29;20039;-80
2023/09/15 12:12:30;;;;;;;3.75;2.05;;;;;;;;;;4910796;29;20041;-79
2023/09/15 12:15:00;;;;;;;4.38;2.10;;;;;;;;;;4919265;29;20024;-79
2023/09/15 12:17:26;;;;;;;5.03;2.05;;;;;;;;;;4916105;29;20063;-78
2023/09/15 12:19:56;;;;;;;4.82;2.17;;;;;;;;;;4906547;29;20065;-79
2023/09/15 12:22:28;;;;;;;4.10;1.70;;;;;;;;;;4909829;29;20040;-78
2023/09/15 12:24:54;;;;;;;4.32;2.20;;;;;;;;;;4912149;29;20107;-80
2023/09/15 12:27:19;;;;;;;2.83;1.70;;;;;;;;;;4911425;29;20073;-79
2023/09/15 12:29:44;;;;;;;3.50;2.30;;;;;;;;;;4911359;29;20280;-79
2023/09/15 12:32:09;;;;;;;4.70;2.13;;;;;;;;;;4911633;29;20028;-80
2023/09/15 12:34:37;;;;;;;5.13;2.45;;;;;;;;;;4908746;29;20028;-79
2023/09/15 12:37:06;;;;;;;3.72;2.05;;;;;;;;;;4911544;29;20634;-78
2023/09/15 12:39:31;;;;;;;8.57;2.22;;;;;;;;;;4912555;29;20111;-80
2023/09/15 12:41:57;;;;;;;3.63;2.17;;;;;;;;;;4914907;29;20032;-80
2023/09/15 12:44:24;;;;;;;3.78;1.80;;;;;;;;;;4915760;29;20035;-78
2023/09/15 12:46:49;;;;;;;3.75;1.70;;;;;;;;;;4910564;29;20051;-80
2023/09/15 12:49:14;;;;;;;4.17;2.60;;;;;;;;;;4915248;29;20031;-80
2023/09/15 12:51:40;;;;;;;3.50;2.00;;;;;;;;;;4913072;29;20046;-80
2023/09/15 12:54:05;;;;;;;4.43;2.20;;;;;;;;;;4912690;29;20035;-79
2023/09/15 12:56:31;;;;;;;3.13;2.00;;;;;;;;;;4926522;29;20337;-80
2023/09/15 12:58:59;;;;;;;3.85;1.70;;;;;;;;;;4918251;29;20070;-79
2023/09/15 13:01:24;;;;;;;5.03;2.05;;;;;;;;;;4914911;29;20095;-80
2023/09/15 13:03:49;;;;;;;4.23;2.30;;;;;;;;;;4915353;29;20111;-80
2023/09/15 13:06:15;;;;;;;3.87;2.20;;;;;;;;;;4917370;29;20379;-78
2023/09/15 13:08:40;;;;;;;5.53;2.65;;;;;;;;;;4915787;29;20420;-80
2023/09/15 13:11:05;;;;;;;3.47;1.97;;;;;;;;;;4914993;29;20036;-80
2023/09/15 13:13:30;;;;;;;3.40;2.00;;;;;;;;;;4913979;29;20477;-80
2023/09/15 13:15:55;;;;;;;4.03;2.27;;;;;;;;;;4913980;29;20036;-80
2023/09/15 13:18:23;;;;;;;3.85;1.50;;;;;;;;;;4912028;29;20042;-78
2023/09/15 13:20:48;;;;;;;3.90;2.10;;;;;;;;;;4909448;29;20033;-80
2023/09/15 13:23:13;;;;;;;5.10;2.22;;;;;;;;;;4911485;29;20038;-80
2023/09/15 13:25:39;;;;;;;3.10;1.60;;;;;;;;;;4915331;29;20040;-79
2023/09/15 13:28:05;;;;;;;3.20;1.50;;;;;;;;;;4917725;29;20111;-80
2023/09/15 13:30:32;;;;;;;3.90;2.40;;;;;;;;;;4913961;29;20036;-80
2023/09/15 13:32:57;;;;;;;5.18;2.25;;;;;;;;;;4913507;29;20386;-80
2023/09/15 13:35:23;;;;;;;4.93;2.10;;;;;;;;;;4910666;29;20051;-80
2023/09/15 13:37:48;;;;;;;4.82;2.00;;;;;;;;;;4917106;29;20036;-80
2023/09/15 13:40:13;;;;;;;3.97;2.30;;;;;;;;;;4917232;29;20032;-80
2023/09/15 13:42:38;;;;;;;2.70;1.57;;;;;;;;;;4915149;29;20046;-81
2023/09/15 13:45:04;;;;;;;4.77;2.00;;;;;;;;;;4912388;29;20035;-80
2023/09/15 13:47:31;;;;;;;3.90;2.92;;;;;;;;;;4915135;29;20032;-80
2023/09/15 13:49:57;;;;;;;4.78;2.20;;;;;;;;;;4908868;29;20052;-80
2023/09/15 13:52:22;;;;;;;6.72;2.55;;;;;;;;;;4914397;29;20029;-81
2023/09/15 13:54:47;;;;;;;4.50;2.50;;;;;;;;;;4908122;29;20036;-79
2023/09/15 13:57:12;;;;;;;6.13;2.63;;;;;;;;;;4914125;29;20059;-80
2023/09/15 13:59:37;;;;;;;6.53;2.93;;;;;;;;;;4910861;29;20524;-80
2023/09/15 14:02:03;;;;;;;8.37;3.07;;;;;;;;;;4916051;29;20073;-80
2023/09/15 14:04:28;;;;;;;6.47;2.50;;;;;;;;;;4914755;29;21346;-81
2023/09/15 14:06:53;;;;;;;7.40;2.73;;;;;;;;;;4900231;29;20388;-80
2023/09/15 14:09:18;;;;;;;4.45;1.77;;;;;;;;;;4911194;29;20320;-80
2023/09/15 14:11:45;;;;;;;4.23;2.10;;;;;;;;;;4907041;29;20112;-80
2023/09/15 14:14:11;;;;;;;2.30;1.42;;;;;;;;;;4913260;29;20294;-80
2023/09/15 14:16:36;;;;;;;3.88;1.80;;;;;;;;;;4909289;29;20115;-77
2023/09/15 14:19:01;;;;;;;4.22;2.20;;;;;;;;;;4912176;29;20079;-78
2023/09/15 14:21:27;;;;;;;4.70;1.58;;;;;;;;;;4915778;29;20092;-73
2023/09/15 14:23:52;;;;;;;4.47;2.20;;;;;;;;;;4912702;29;20476;-72
2023/09/15 14:26:17;;;;;;;5.23;2.33;;;;;;;;;;4911180;29;20039;-73
2023/09/15 14:28:42;;;;;;;3.67;1.80;;;;;;;;;;4907870;29;20095;-72
2023/09/15 14:31:07;;;;;;;4.23;1.70;;;;;;;;;;4905307;29;20413;-74
2023/09/15 14:33:32;;;;;;;6.73;3.00;;;;;;;;;;4905427;29;20047;-73
2023/09/15 14:35:58;;;;;;;3.20;1.53;;;;;;;;;;4910073;29;20032;-72